This is the latest recevied weather packets stored in our database for station/object K6GMW. If no packets are shown the sender has not sent any weather packets the latest 10 day(s).
| Time | Temp. | Humidity | Pressure | Rain* | Wind** | Luminosity | Snow |
|---|---|---|---|---|---|---|---|
| 1788368838 | 32.22° C | 59% | 1017.4 hPa | 0 mm | - | 974 W/m² | - |
| 1788368534 | 31.67° C | 63% | 1017.5 hPa | 0 mm | - | 985 W/m² | - |
| 1788368234 | 31.67° C | 61% | 1017.8 hPa | 0 mm | - | 881 W/m² | - |
| 1788367928 | 32.22° C | 60% | 1017.8 hPa | 0 mm | - | 896 W/m² | - |
| 1788367623 | 31.67° C | 62% | 1017.8 hPa | 0 mm | - | 1004 W/m² | - |
| 1788367322 | 32.22° C | 61% | 1017.7 hPa | 0 mm | - | 919 W/m² | - |
| 1788367017 | 31.67° C | 61% | 1017.8 hPa | 0 mm | - | 883 W/m² | - |
| 1788366717 | 31.11° C | 61% | 1017.7 hPa | 0 mm | - | 861 W/m² | - |
| 1788366416 | 31.67° C | 59% | 1017.8 hPa | 0 mm | - | 861 W/m² | - |
| 1788366110 | 31.11° C | 65% | 1017.8 hPa | 0 mm | - | 870 W/m² | - |
| 1788365806 | 30.56° C | 68% | 1017.8 hPa | 0 mm | - | 247 W/m² | - |
| 1788365501 | 31.67° C | 64% | 1017.7 hPa | 0 mm | - | 327 W/m² | - |
| 1788365198 | 31.67° C | 64% | 1017.9 hPa | 0 mm | - | 882 W/m² | - |
| 1788364892 | 31.11° C | 65% | 1017.8 hPa | 0 mm | - | 925 W/m² | - |
| 1788364591 | 31.67° C | 64% | 1017.8 hPa | 0 mm | - | 211 W/m² | - |
| 1788364290 | 31.11° C | 66% | 1017.9 hPa | 0 mm | - | 886 W/m² | - |
| 1788363985 | 30.56° C | 67% | 1017.8 hPa | 0 mm | - | 727 W/m² | - |
| 1788363680 | 31.11° C | 66% | 1017.7 hPa | 0 mm | - | 888 W/m² | - |
| 1788363379 | 31.67° C | 63% | 1018 hPa | 0 mm | - | 735 W/m² | - |
| 1788363074 | 31.67° C | 65% | 1017.9 hPa | 0 mm | - | 787 W/m² | - |
| 1788362770 | 31.11° C | 64% | 1017.8 hPa | 0 mm | - | 561 W/m² | - |
| 1788362465 | 31.67° C | 63% | 1017.7 hPa | 0 mm | - | 738 W/m² | - |
| 1788362161 | 31.67° C | 63% | 1017.7 hPa | 0 mm | - | 671 W/m² | - |
| 1788361861 | 31.67° C | 64% | 1017.5 hPa | 0 mm | - | 653 W/m² | - |
| 1788361556 | 31.67° C | 64% | 1017.5 hPa | 0 mm | - | 647 W/m² | - |
* Rain latest hour (hover to see other rain measurements)
** Current wind speed in m/s (hover to see current wind gust speed)